Time;durP1;ratioP1;P1;durP2;ratioP2;P2;SDS_P1;SDS_P2;PMS_P1;PMS_P2;Temp;Humidity;BMP_temperature;BMP_pressure;BME280_temperature;BME280_humidity;BME280_pressure;Samples;Min_cycle;Max_cycle;Signal;HPM_P1;HPM_P2
2022/06/23 00:02:24;;;;;;;10.27;6.87;;;17.90;99.90;;;;;;4969104;28;20362;-60
2022/06/23 00:04:56;;;;;;;7.40;5.77;;;17.90;99.90;;;;;;4966891;28;20233;-59
2022/06/23 00:07:24;;;;;;;9.43;6.73;;;17.90;99.90;;;;;;4969045;28;20200;-59
2022/06/23 00:09:56;;;;;;;10.73;6.33;;;17.90;99.90;;;;;;4966878;28;20197;-60
2022/06/23 00:12:26;;;;;;;6.50;5.90;;;17.90;99.90;;;;;;4969063;28;20687;-59
2022/06/23 00:14:54;;;;;;;13.03;6.27;;;17.80;99.90;;;;;;4955033;28;20205;-59
2022/06/23 00:17:40;;;;;;;13.67;7.30;;;17.70;99.90;;;;;;4968990;28;20343;-59
2022/06/23 00:20:26;;;;;;;17.60;6.63;;;17.60;99.90;;;;;;4965555;28;20283;-59
2022/06/23 00:22:55;;;;;;;10.20;6.67;;;17.60;99.90;;;;;;4968407;28;20300;-60
2022/06/23 00:25:30;;;;;;;11.33;6.20;;;17.60;99.90;;;;;;4966970;28;20212;-60
2022/06/23 00:27:57;;;;;;;9.37;5.90;;;17.50;99.90;;;;;;4968194;28;20204;-60
2022/06/23 00:30:27;;;;;;;10.90;6.77;;;17.50;99.90;;;;;;4967287;28;20201;-60
2022/06/23 00:32:53;;;;;;;9.53;6.23;;;17.40;99.90;;;;;;4949606;29;20200;-61
2022/06/23 00:35:19;;;;;;;10.57;6.77;;;17.40;99.90;;;;;;4966076;28;20220;-60
2022/06/23 00:37:49;;;;;;;13.60;6.87;;;17.40;99.90;;;;;;4968387;28;20659;-59
2022/06/23 00:40:17;;;;;;;10.27;6.57;;;17.30;99.90;;;;;;4966659;28;20267;-60
2022/06/23 00:42:56;;;;;;;10.57;7.00;;;17.30;99.90;;;;;;4968225;28;20221;-60
2022/06/23 00:45:57;;;;;;;10.87;7.10;;;17.30;99.90;;;;;;4958144;28;20779;-60
2022/06/23 00:48:36;;;;;;;9.67;6.40;;;17.30;99.90;;;;;;4968618;28;20647;-60
2022/06/23 00:51:08;;;;;;;10.57;6.57;;;17.20;99.90;;;;;;4963076;28;20202;-59
2022/06/23 00:53:46;;;;;;;10.23;6.87;;;17.20;99.90;;;;;;4950272;28;20351;-59
2022/06/23 00:56:44;;;;;;;9.20;5.93;;;17.20;99.90;;;;;;4964099;28;20204;-59
2022/06/23 00:59:45;;;;;;;11.47;9.00;;;17.20;99.90;;;;;;4953291;28;20604;-59
2022/06/23 01:02:19;;;;;;;10.30;7.97;;;17.10;99.90;;;;;;4952342;28;20240;-60
2022/06/23 01:05:05;;;;;;;10.13;6.67;;;17.10;99.90;;;;;;4966354;28;20221;-59
2022/06/23 01:07:53;;;;;;;9.47;7.33;;;17.10;99.90;;;;;;4961975;28;20182;-59
2022/06/23 01:10:53;;;;;;;7.33;6.53;;;17.00;99.90;;;;;;4956421;28;20209;-59
2022/06/23 01:13:34;;;;;;;9.10;6.30;;;17.00;99.90;;;;;;4927295;29;20273;-60
2022/06/23 01:16:13;;;;;;;8.77;6.17;;;17.00;99.90;;;;;;4956525;28;20228;-60
2022/06/23 01:18:47;;;;;;;8.70;6.63;;;16.90;99.90;;;;;;4968323;28;20189;-59
2022/06/23 01:21:28;;;;;;;8.77;6.50;;;16.90;99.90;;;;;;4962732;28;20278;-58
2022/06/23 01:24:35;;;;;;;9.53;7.40;;;16.90;99.90;;;;;;4960790;28;20190;-60
2022/06/23 01:27:18;;;;;;;9.50;7.17;;;16.80;99.90;;;;;;4964709;28;20245;-59
2022/06/23 01:29:48;;;;;;;15.37;7.67;;;16.80;99.90;;;;;;4950773;28;20209;-60
2022/06/23 01:32:17;;;;;;;10.50;6.97;;;16.80;99.90;;;;;;4967907;28;20199;-60
2022/06/23 01:34:54;;;;;;;11.87;7.60;;;16.70;99.90;;;;;;4965599;28;20246;-60
2022/06/23 01:37:41;;;;;;;7.70;6.57;;;16.70;99.90;;;;;;4967900;28;20205;-60
2022/06/23 01:40:19;;;;;;;8.17;6.47;;;16.70;99.90;;;;;;4952767;28;20234;-60
2022/06/23 01:42:55;;;;;;;7.57;6.27;;;16.60;99.90;;;;;;4948681;29;20249;-60
2022/06/23 01:45:32;;;;;;;10.83;7.07;;;16.60;99.90;;;;;;4965610;28;20744;-60
2022/06/23 01:48:11;;;;;;;8.60;7.10;;;16.60;99.90;;;;;;4952426;28;20206;-60
2022/06/23 01:50:48;;;;;;;9.13;6.77;;;16.50;99.90;;;;;;4957046;28;20677;-60
2022/06/23 01:53:23;;;;;;;14.47;7.53;;;16.50;99.90;;;;;;4948464;29;20198;-60
2022/06/23 01:56:27;;;;;;;12.87;7.27;;;16.50;99.90;;;;;;4940897;28;20655;-61
2022/06/23 01:59:09;;;;;;;12.93;8.43;;;16.40;99.90;;;;;;4947679;29;20221;-61
2022/06/23 02:01:45;;;;;;;11.90;8.00;;;16.40;99.90;;;;;;4955461;28;20277;-60
2022/06/23 02:04:18;;;;;;;12.07;7.17;;;16.30;99.90;;;;;;4948046;29;20244;-60
2022/06/23 02:06:52;;;;;;;12.97;8.23;;;16.30;99.90;;;;;;4965436;28;20207;-59
2022/06/23 02:09:37;;;;;;;11.47;7.50;;;16.30;99.90;;;;;;4948091;29;20181;-59
2022/06/23 02:12:13;;;;;;;10.37;7.53;;;16.30;99.90;;;;;;4956948;28;20195;-59
2022/06/23 02:14:48;;;;;;;25.97;15.23;;;16.30;99.90;;;;;;4949131;28;20284;-60
2022/06/23 02:17:39;;;;;;;10.70;7.77;;;16.20;99.90;;;;;;4966628;28;20740;-60
2022/06/23 02:20:38;;;;;;;11.57;8.80;;;16.20;99.90;;;;;;4959107;28;20228;-60
2022/06/23 02:23:08;;;;;;;10.37;8.47;;;16.20;99.90;;;;;;4947909;29;20202;-60
2022/06/23 02:25:37;;;;;;;11.67;8.57;;;16.10;99.90;;;;;;4964492;28;20712;-60
2022/06/23 02:28:21;;;;;;;14.07;8.67;;;16.10;99.90;;;;;;4966717;28;20206;-60
2022/06/23 02:30:53;;;;;;;11.83;7.97;;;16.10;99.90;;;;;;4957053;28;20220;-60
2022/06/23 02:33:29;;;;;;;11.87;7.97;;;16.10;99.90;;;;;;4956656;28;20195;-60
2022/06/23 02:36:21;;;;;;;15.43;8.63;;;16.00;99.90;;;;;;4962139;28;20282;-60
2022/06/23 02:38:57;;;;;;;12.17;8.87;;;16.00;99.90;;;;;;4947069;29;20265;-60
2022/06/23 02:41:29;;;;;;;13.03;8.63;;;16.00;99.90;;;;;;4961002;28;20217;-60
2022/06/23 02:44:21;;;;;;;10.70;8.17;;;15.90;99.90;;;;;;4962609;28;20191;-61
2022/06/23 02:47:17;;;;;;;16.23;9.50;;;15.90;99.90;;;;;;4964191;28;20288;-60
2022/06/23 02:50:02;;;;;;;24.70;15.77;;;15.90;99.90;;;;;;4959848;28;20767;-59
2022/06/23 02:53:02;;;;;;;12.27;8.13;;;15.90;99.90;;;;;;4967254;28;20195;-58
2022/06/23 02:56:10;;;;;;;14.27;9.10;;;15.80;99.90;;;;;;4953509;28;20590;-59
2022/06/23 02:58:49;;;;;;;13.17;9.40;;;15.80;99.90;;;;;;4945308;28;20614;-60
2022/06/23 03:01:24;;;;;;;10.47;8.00;;;15.80;99.90;;;;;;4958768;28;20233;-59
2022/06/23 03:04:29;;;;;;;18.87;8.70;;;15.80;99.90;;;;;;4956397;28;20560;-59
2022/06/23 03:07:07;;;;;;;15.10;9.17;;;15.80;99.90;;;;;;4964348;28;20217;-59
2022/06/23 03:09:42;;;;;;;12.90;8.77;;;15.80;99.90;;;;;;4958506;28;20193;-59
2022/06/23 03:12:18;;;;;;;15.37;8.53;;;15.80;99.90;;;;;;4953153;28;20196;-59
2022/06/23 03:15:05;;;;;;;14.27;11.80;;;15.70;99.90;;;;;;4956021;28;20194;-59
2022/06/23 03:17:34;;;;;;;10.67;8.80;;;15.70;99.90;;;;;;4965541;28;20206;-60
2022/06/23 03:20:06;;;;;;;11.20;8.87;;;15.70;99.90;;;;;;4964300;28;20206;-60
2022/06/23 03:22:38;;;;;;;10.77;8.70;;;15.70;99.90;;;;;;4966381;28;20261;-60
2022/06/23 03:25:32;;;;;;;11.60;9.10;;;15.70;99.90;;;;;;4948940;28;20205;-60
2022/06/23 03:28:03;;;;;;;10.90;8.27;;;15.70;99.90;;;;;;4966662;28;20190;-59
2022/06/23 03:30:59;;;;;;;12.97;8.30;;;15.70;99.90;;;;;;4951848;28;20251;-59
2022/06/23 03:33:39;;;;;;;12.37;9.50;;;15.70;99.90;;;;;;4963322;28;20190;-59
2022/06/23 03:36:24;;;;;;;14.47;8.13;;;15.70;99.90;;;;;;4956441;28;20208;-59
2022/06/23 03:41:53;;;;;;;9.13;8.23;;;15.70;99.90;;;;;;4961666;28;20278;-60
2022/06/23 03:44:27;;;;;;;12.00;8.80;;;15.70;99.90;;;;;;4947170;29;20186;-59
2022/06/23 03:46:59;;;;;;;10.27;7.93;;;15.70;99.90;;;;;;4956707;28;20544;-60
2022/06/23 03:49:47;;;;;;;9.27;7.33;;;15.70;99.90;;;;;;4950406;28;20702;-61
2022/06/23 03:52:37;;;;;;;13.97;8.87;;;15.70;99.90;;;;;;4960089;28;20265;-61
2022/06/23 03:55:23;;;;;;;11.17;8.37;;;15.80;99.90;;;;;;4954174;28;20198;-61
2022/06/23 03:57:55;;;;;;;10.97;7.80;;;15.80;99.90;;;;;;4957711;28;20182;-61
2022/06/23 04:00:43;;;;;;;13.43;8.20;;;15.70;99.90;;;;;;4951587;28;20703;-59
2022/06/23 04:03:23;;;;;;;11.80;8.43;;;15.70;99.90;;;;;;4966288;28;20240;-61
2022/06/23 04:05:55;;;;;;;17.00;10.00;;;15.70;99.90;;;;;;4963700;28;20252;-60
2022/06/23 04:08:28;;;;;;;12.23;7.90;;;15.70;99.90;;;;;;4968880;28;20213;-60
2022/06/23 04:10:58;;;;;;;11.73;8.67;;;15.80;99.90;;;;;;4957188;28;20214;-59
2022/06/23 04:13:34;;;;;;;13.40;7.73;;;15.80;99.90;;;;;;4965944;28;20197;-59
2022/06/23 04:16:06;;;;;;;12.53;8.27;;;15.80;99.90;;;;;;4957899;28;20209;-62
2022/06/23 04:18:32;;;;;;;10.43;7.60;;;15.90;99.90;;;;;;4969294;28;20214;-60
2022/06/23 04:21:07;;;;;;;13.27;8.57;;;15.90;99.90;;;;;;4966878;28;20221;-59
2022/06/23 04:23:35;;;;;;;12.87;8.67;;;15.90;99.90;;;;;;4949940;29;20196;-60
2022/06/23 04:26:12;;;;;;;10.30;8.00;;;16.00;99.90;;;;;;4966464;28;20681;-61
2022/06/23 04:28:45;;;;;;;10.37;7.70;;;16.00;99.90;;;;;;4959772;28;20197;-58
2022/06/23 04:31:23;;;;;;;8.73;7.43;;;16.00;99.90;;;;;;4966636;28;20254;-61
2022/06/23 04:33:49;;;;;;;10.97;7.50;;;16.10;99.90;;;;;;4969019;28;20236;-59
2022/06/23 04:36:25;;;;;;;11.60;7.53;;;16.10;99.90;;;;;;4966740;28;20277;-59
2022/06/23 04:39:19;;;;;;;9.57;6.77;;;16.20;99.90;;;;;;4949427;29;20592;-59
2022/06/23 04:41:59;;;;;;;8.43;6.70;;;16.20;99.90;;;;;;4962665;28;20219;-58
2022/06/23 04:44:35;;;;;;;8.17;7.00;;;16.30;99.90;;;;;;4968690;28;20335;-58
2022/06/23 04:47:02;;;;;;;9.83;7.57;;;16.40;99.90;;;;;;4966737;28;20197;-59
2022/06/23 04:49:42;;;;;;;8.57;6.73;;;16.40;99.90;;;;;;4968366;28;20215;-59
2022/06/23 04:52:32;;;;;;;11.10;7.37;;;16.50;99.90;;;;;;4965389;28;20201;-58
2022/06/23 04:55:07;;;;;;;13.40;10.00;;;16.50;99.90;;;;;;4947767;28;20218;-59
2022/06/23 04:57:44;;;;;;;10.33;6.93;;;16.60;99.90;;;;;;4968423;28;20251;-61
2022/06/23 05:00:36;;;;;;;15.20;11.43;;;16.70;99.90;;;;;;4965740;28;20228;-61
2022/06/23 05:03:12;;;;;;;6.83;6.10;;;16.70;99.90;;;;;;4968166;28;20230;-60
2022/06/23 05:05:38;;;;;;;8.67;6.80;;;16.80;99.90;;;;;;4952645;28;20579;-60
2022/06/23 05:08:26;;;;;;;9.77;6.30;;;16.80;99.90;;;;;;4968326;28;20212;-59
2022/06/23 05:10:59;;;;;;;8.23;6.50;;;16.90;99.90;;;;;;4962594;28;20213;-60
2022/06/23 05:13:29;;;;;;;9.27;7.30;;;17.00;99.90;;;;;;4948638;28;20229;-60
2022/06/23 05:16:05;;;;;;;8.07;6.77;;;17.10;99.90;;;;;;4953557;28;20214;-59
2022/06/23 05:18:38;;;;;;;11.73;6.30;;;17.10;99.90;;;;;;4949089;29;20174;-60
2022/06/23 05:21:11;;;;;;;7.63;6.57;;;17.20;99.90;;;;;;4965194;28;20236;-59
2022/06/23 05:23:42;;;;;;;9.53;6.50;;;17.30;99.90;;;;;;4948859;29;20186;-60
2022/06/23 05:26:15;;;;;;;7.27;6.50;;;17.40;99.90;;;;;;4964345;28;20201;-59
2022/06/23 05:28:43;;;;;;;8.20;5.43;;;17.50;99.90;;;;;;4948826;29;20189;-59
2022/06/23 05:31:18;;;;;;;8.27;5.50;;;17.60;99.90;;;;;;4965332;28;20225;-59
2022/06/23 05:33:48;;;;;;;7.73;5.50;;;17.70;99.90;;;;;;4950876;28;20206;-59
2022/06/23 05:36:26;;;;;;;12.77;7.60;;;17.80;99.90;;;;;;4965334;28;20243;-59
2022/06/23 05:39:18;;;;;;;8.17;5.20;;;17.80;99.90;;;;;;4963867;28;20669;-60
2022/06/23 05:41:47;;;;;;;7.33;5.20;;;17.90;99.90;;;;;;4961047;28;20320;-60
2022/06/23 05:44:22;;;;;;;6.63;5.77;;;18.10;99.90;;;;;;4967186;28;20649;-61
2022/06/23 05:46:48;;;;;;;9.50;6.57;;;18.10;99.90;;;;;;4960033;28;20665;-61
2022/06/23 05:49:26;;;;;;;8.43;6.30;;;18.20;99.90;;;;;;4967086;28;20219;-61
2022/06/23 05:52:05;;;;;;;14.67;5.70;;;18.30;99.90;;;;;;4965419;28;20212;-60
2022/06/23 05:54:47;;;;;;;7.20;5.43;;;18.40;99.90;;;;;;4967070;28;20207;-60
2022/06/23 05:57:45;;;;;;;6.40;5.40;;;18.50;99.90;;;;;;4952707;28;20208;-60
2022/06/23 06:00:37;;;;;;;12.93;8.43;;;18.60;99.90;;;;;;4961911;28;20314;-59
2022/06/23 06:03:48;;;;;;;8.17;5.13;;;18.70;99.90;;;;;;4966923;28;20218;-59
2022/06/23 06:06:14;;;;;;;8.13;5.30;;;18.80;99.90;;;;;;4895022;29;20243;-61
2022/06/23 06:11:31;;;;;;;8.17;5.90;;;19.00;99.90;;;;;;4940122;28;20251;-59
2022/06/23 06:13:58;;;;;;;9.70;5.80;;;19.10;99.90;;;;;;4966932;28;20336;-59
2022/06/23 06:16:24;;;;;;;9.63;5.27;;;19.10;99.90;;;;;;4964810;28;20254;-60
2022/06/23 06:18:50;;;;;;;5.97;5.37;;;19.20;99.90;;;;;;4967297;28;20621;-60
2022/06/23 06:21:19;;;;;;;8.93;6.37;;;19.30;99.90;;;;;;4964997;28;20221;-60
2022/06/23 06:23:53;;;;;;;12.20;6.60;;;19.40;99.90;;;;;;4967005;28;20197;-60
2022/06/23 06:26:23;;;;;;;7.30;5.63;;;19.50;99.90;;;;;;4954191;28;20687;-61
2022/06/23 06:28:49;;;;;;;10.63;6.80;;;19.60;99.90;;;;;;4966646;28;20553;-59
2022/06/23 06:31:26;;;;;;;7.83;6.13;;;19.70;99.90;;;;;;4965175;28;20677;-59
2022/06/23 06:34:06;;;;;;;6.27;5.13;;;19.70;99.90;;;;;;4966738;28;20287;-59
2022/06/23 06:36:45;;;;;;;5.87;5.10;;;19.90;99.90;;;;;;4958483;28;20225;-59
2022/06/23 06:39:18;;;;;;;5.43;4.77;;;19.90;99.90;;;;;;4965285;28;20248;-58
2022/06/23 06:41:47;;;;;;;10.67;6.00;;;20.00;99.90;;;;;;4964750;28;20595;-58
2022/06/23 06:44:15;;;;;;;7.90;5.43;;;20.10;99.90;;;;;;4966300;28;20198;-58
2022/06/23 06:46:41;;;;;;;13.23;6.87;;;20.20;99.90;;;;;;4964631;28;20209;-58
2022/06/23 06:49:18;;;;;;;7.97;5.20;;;20.20;99.90;;;;;;4966032;28;20228;-59
2022/06/23 06:51:45;;;;;;;11.27;5.47;;;20.30;99.90;;;;;;4957130;28;20296;-58
2022/06/23 06:54:41;;;;;;;6.60;4.60;;;20.30;99.40;;;;;;4966139;28;20253;-59
2022/06/23 06:57:22;;;;;;;7.03;5.03;;;20.40;99.70;;;;;;4958503;28;20300;-60
2022/06/23 07:00:06;;;;;;;7.70;5.23;;;20.40;99.90;;;;;;4950767;28;20326;-59
2022/06/23 07:02:40;;;;;;;7.20;4.83;;;20.50;99.70;;;;;;4953798;28;20237;-59
2022/06/23 07:05:46;;;;;;;5.77;5.27;;;20.60;99.60;;;;;;4948611;28;20194;-59
2022/06/23 07:08:24;;;;;;;5.53;4.93;;;20.70;99.30;;;;;;4945920;28;20692;-60
2022/06/23 07:11:00;;;;;;;6.70;4.60;;;20.80;98.80;;;;;;4964553;28;20300;-60
2022/06/23 07:13:48;;;;;;;4.47;4.10;;;20.80;98.70;;;;;;4966412;28;20185;-61
2022/06/23 07:16:42;;;;;;;8.00;5.30;;;20.90;98.70;;;;;;4952040;28;20214;-60
2022/06/23 07:19:24;;;;;;;8.27;5.13;;;21.00;98.60;;;;;;4956868;28;20196;-59
2022/06/23 07:22:06;;;;;;;8.93;4.87;;;21.10;98.60;;;;;;4960443;28;20228;-60
2022/06/23 07:24:52;;;;;;;7.07;4.47;;;21.20;98.70;;;;;;4949931;28;20229;-64
2022/06/23 07:27:39;;;;;;;5.60;5.03;;;21.20;98.30;;;;;;4964315;28;20233;-62
2022/06/23 07:30:07;;;;;;;5.63;4.47;;;21.30;98.40;;;;;;4960225;28;20178;-64
2022/06/23 07:32:46;;;;;;;8.20;4.53;;;21.40;98.10;;;;;;4964248;28;20289;-64
2022/06/23 07:35:18;;;;;;;5.20;4.10;;;21.50;97.60;;;;;;4957136;28;20590;-63
2022/06/23 07:38:11;;;;;;;5.37;4.23;;;21.50;97.10;;;;;;4965510;28;20220;-62
2022/06/23 07:40:58;;;;;;;16.10;8.17;;;21.60;96.50;;;;;;4947209;28;20194;-62
2022/06/23 07:43:44;;;;;;;5.27;4.50;;;21.60;96.00;;;;;;4969375;28;20699;-61
2022/06/23 07:46:10;;;;;;;7.32;4.78;;;21.70;96.30;;;;;;4973702;28;20287;-61
2022/06/23 07:48:37;;;;;;;5.63;4.90;;;21.80;96.00;;;;;;4980154;28;20345;-60
2022/06/23 07:51:05;;;;;;;7.35;5.13;;;21.90;96.00;;;;;;4970127;28;20268;-63
2022/06/23 07:53:38;;;;;;;5.35;4.72;;;22.00;95.50;;;;;;4971786;28;20272;-61
2022/06/23 07:56:08;;;;;;;5.88;4.95;;;22.00;95.70;;;;;;4976265;28;20201;-63
2022/06/23 07:58:36;;;;;;;6.78;4.82;;;22.10;95.40;;;;;;4978314;28;20313;-62
2022/06/23 08:01:24;;;;;;;7.78;4.90;;;22.20;95.40;;;;;;4974113;28;20225;-63
2022/06/23 08:04:05;;;;;;;8.98;4.47;;;22.30;95.70;;;;;;4976571;28;20532;-62
2022/06/23 08:06:33;;;;;;;7.20;4.75;;;22.40;95.00;;;;;;4976236;28;20209;-61
2022/06/23 08:09:04;;;;;;;11.80;4.93;;;22.50;94.70;;;;;;4976659;28;20189;-63
2022/06/23 08:14:28;;;;;;;7.07;4.20;;;22.80;94.70;;;;;;4969038;28;20462;-65
2022/06/23 08:16:54;;;;;;;7.45;4.70;;;22.80;94.40;;;;;;4963958;28;20205;-64
2022/06/23 08:19:31;;;;;;;5.43;4.47;;;22.80;93.80;;;;;;4971359;28;20189;-63
2022/06/23 08:22:17;;;;;;;6.55;4.90;;;22.80;93.80;;;;;;4976598;28;20300;-65
2022/06/23 08:24:48;;;;;;;7.90;5.20;;;22.90;93.80;;;;;;4973339;28;20212;-63
2022/06/23 08:27:20;;;;;;;6.65;4.35;;;23.00;93.60;;;;;;4973965;28;20198;-62
2022/06/23 08:29:51;;;;;;;5.00;3.40;;;23.00;93.20;;;;;;4976953;28;20193;-62
2022/06/23 08:32:17;;;;;;;4.40;4.00;;;23.10;93.60;;;;;;4976875;28;20213;-62
2022/06/23 08:35:02;;;;;;;6.22;4.75;;;23.10;93.20;;;;;;4974618;28;20202;-61
2022/06/23 08:37:34;;;;;;;6.93;4.50;;;23.30;92.00;;;;;;4972751;28;20288;-62
2022/06/23 08:40:27;;;;;;;6.70;4.72;;;23.40;92.10;;;;;;4978933;28;20196;-62
2022/06/23 08:43:22;;;;;;;6.97;4.38;;;23.50;91.60;;;;;;4973787;28;20690;-62
2022/06/23 08:45:55;;;;;;;11.20;7.78;;;23.60;91.30;;;;;;4932008;28;20657;-64
2022/06/23 08:48:51;;;;;;;4.65;4.13;;;23.60;91.00;;;;;;4971306;28;20205;-64
2022/06/23 08:51:41;;;;;;;5.85;4.55;;;23.60;90.90;;;;;;4972815;28;20239;-63
2022/06/23 08:54:24;;;;;;;6.60;4.32;;;23.80;90.20;;;;;;4973011;28;20337;-62
2022/06/23 08:56:58;;;;;;;6.82;4.38;;;23.90;88.30;;;;;;4976348;28;20262;-62
2022/06/23 08:59:54;;;;;;;5.35;4.07;;;24.00;86.10;;;;;;4971958;28;20198;-62
2022/06/23 09:02:56;;;;;;;5.35;4.53;;;24.00;86.80;;;;;;4964613;28;20235;-64
2022/06/23 09:05:52;;;;;;;7.03;4.22;;;24.00;85.80;;;;;;4953017;28;20193;-64
2022/06/23 09:08:42;;;;;;;5.20;4.13;;;24.10;86.50;;;;;;4968474;28;20766;-64
2022/06/23 09:11:20;;;;;;;8.18;4.63;;;24.30;87.20;;;;;;4964663;28;20282;-64
2022/06/23 09:14:00;;;;;;;6.13;4.40;;;24.40;86.90;;;;;;4968561;28;20664;-62
2022/06/23 09:16:54;;;;;;;8.43;5.15;;;24.40;85.90;;;;;;4967595;28;20216;-64
2022/06/23 09:19:41;;;;;;;6.57;4.38;;;24.60;83.90;;;;;;4969002;28;20186;-60
2022/06/23 09:22:26;;;;;;;4.60;4.03;;;24.70;83.50;;;;;;4971549;28;20209;-62
2022/06/23 09:24:52;;;;;;;8.88;5.15;;;24.80;83.20;;;;;;4974175;28;20721;-61
2022/06/23 09:27:41;;;;;;;9.70;4.72;;;24.90;80.50;;;;;;4967203;28;20209;-63
2022/06/23 09:30:17;;;;;;;6.78;5.05;;;25.00;80.40;;;;;;4969898;28;20236;-62
2022/06/23 09:33:17;;;;;;;7.20;4.32;;;25.00;80.00;;;;;;4973245;28;20222;-62
2022/06/23 09:36:24;;;;;;;6.90;4.88;;;25.10;80.40;;;;;;4972431;28;20188;-62
2022/06/23 09:39:23;;;;;;;4.47;3.85;;;25.10;79.50;;;;;;4977356;28;20192;-64
2022/06/23 09:42:11;;;;;;;6.85;4.50;;;25.20;78.30;;;;;;4973941;28;20231;-64
2022/06/23 09:45:02;;;;;;;8.30;3.83;;;25.30;78.00;;;;;;4966011;28;20187;-61
2022/06/23 09:47:54;;;;;;;6.13;4.22;;;25.40;75.20;;;;;;4971168;28;20235;-63
2022/06/23 09:50:42;;;;;;;4.38;3.72;;;25.40;73.40;;;;;;4973033;28;20186;-63
2022/06/23 09:53:30;;;;;;;6.40;4.50;;;25.50;74.20;;;;;;4970802;28;20211;-62
2022/06/23 09:56:27;;;;;;;5.63;3.75;;;25.60;74.60;;;;;;4976203;28;20227;-62
2022/06/23 09:59:15;;;;;;;5.88;4.78;;;25.60;74.40;;;;;;4976362;28;20203;-62
2022/06/23 10:01:56;;;;;;;9.52;5.22;;;25.70;73.50;;;;;;4975917;28;20262;-61
2022/06/23 10:04:33;;;;;;;3.90;3.30;;;25.80;72.10;;;;;;4963336;28;20269;-61
2022/06/23 10:07:38;;;;;;;6.45;4.63;;;25.90;70.70;;;;;;4972597;28;20196;-61
2022/06/23 10:10:35;;;;;;;8.18;4.63;;;26.00;69.30;;;;;;4970475;28;20271;-71
2022/06/23 10:13:23;;;;;;;4.53;3.90;;;26.00;70.70;;;;;;4962188;28;20202;-60
2022/06/23 10:16:21;;;;;;;6.30;4.60;;;26.20;70.40;;;;;;4946964;28;20197;-62
2022/06/23 10:19:17;;;;;;;7.03;4.15;;;26.30;67.70;;;;;;4974142;28;20192;-62
2022/06/23 10:22:11;;;;;;;4.88;4.38;;;26.30;66.20;;;;;;4971028;28;20748;-64
2022/06/23 10:25:10;;;;;;;5.47;3.75;;;26.40;64.80;;;;;;4976021;28;20186;-64
2022/06/23 10:28:03;;;;;;;7.75;4.65;;;26.40;64.20;;;;;;4958616;28;20236;-64
2022/06/23 10:30:53;;;;;;;6.03;3.38;;;26.50;64.50;;;;;;4955487;28;20185;-65
2022/06/23 10:33:30;;;;;;;7.05;4.30;;;26.60;63.30;;;;;;4963741;28;20588;-64
2022/06/23 10:36:41;;;;;;;5.38;4.07;;;26.60;61.40;;;;;;4959600;28;20181;-64
2022/06/23 10:39:41;;;;;;;7.97;4.57;;;26.70;64.40;;;;;;4961371;28;20594;-64
2022/06/23 10:42:31;;;;;;;7.35;4.53;;;26.60;60.20;;;;;;4933188;28;20233;-65
2022/06/23 10:45:06;;;;;;;4.72;3.47;;;26.70;61.90;;;;;;4945603;28;20228;-65
2022/06/23 10:47:59;;;;;;;5.32;3.85;;;26.80;62.20;;;;;;4956805;28;20640;-65
2022/06/23 10:50:47;;;;;;;5.55;3.60;;;27.00;59.50;;;;;;4955061;28;20189;-64
2022/06/23 10:53:50;;;;;;;5.72;4.28;;;27.10;58.50;;;;;;4963792;28;20291;-64
2022/06/23 10:56:51;;;;;;;11.32;7.85;;;27.20;56.70;;;;;;4945979;28;20193;-65
2022/06/23 10:59:34;;;;;;;7.38;4.25;;;27.30;56.30;;;;;;4966301;28;20200;-65
2022/06/23 11:02:21;;;;;;;4.85;4.32;;;27.50;55.20;;;;;;4951707;28;20274;-62
2022/06/23 11:05:08;;;;;;;10.68;5.55;;;27.90;55.30;;;;;;4958934;28;20193;-63
2022/06/23 11:08:02;;;;;;;8.43;4.85;;;29.00;54.90;;;;;;4955909;28;20205;-64
2022/06/23 11:11:01;;;;;;;10.52;5.93;;;30.20;54.60;;;;;;4947059;28;20194;-64
2022/06/23 11:13:39;;;;;;;6.72;4.57;;;31.80;51.90;;;;;;4968218;28;20213;-75
2022/06/23 11:16:35;;;;;;;6.20;4.43;;;33.00;47.20;;;;;;4952354;28;20198;-73
2022/06/23 11:19:25;;;;;;;6.13;4.35;;;34.20;45.60;;;;;;4959159;28;20201;-75
2022/06/23 11:22:18;;;;;;;6.50;4.25;;;35.50;41.70;;;;;;4967853;28;20224;-74
2022/06/23 11:25:22;;;;;;;4.10;3.45;;;36.70;39.60;;;;;;4967849;28;20177;-74
2022/06/23 11:28:07;;;;;;;4.90;2.83;;;37.60;38.20;;;;;;4975663;28;20677;-73
2022/06/23 11:30:43;;;;;;;4.15;3.42;;;38.50;35.30;;;;;;4978310;28;20273;-71
2022/06/23 11:33:27;;;;;;;5.20;4.15;;;39.00;34.10;;;;;;4976845;28;20217;-72
2022/06/23 11:36:09;;;;;;;6.68;4.40;;;39.50;33.30;;;;;;4973147;28;20173;-71
2022/06/23 11:39:00;;;;;;;7.78;4.60;;;40.00;31.80;;;;;;4975564;28;20706;-74
2022/06/23 11:41:52;;;;;;;8.57;6.82;;;40.50;31.30;;;;;;4973973;28;20235;-73
2022/06/23 11:44:42;;;;;;;5.03;3.30;;;40.80;30.30;;;;;;4977771;28;20189;-73
2022/06/23 11:47:13;;;;;;;5.40;4.45;;;41.30;30.30;;;;;;4974768;28;20260;-72
2022/06/23 11:49:57;;;;;;;7.60;3.90;;;41.20;28.40;;;;;;4976460;28;20245;-72
2022/06/23 11:52:26;;;;;;;7.20;4.85;;;41.30;28.90;;;;;;4974505;28;20209;-72
2022/06/23 11:55:04;;;;;;;8.10;3.80;;;41.60;29.10;;;;;;4975875;28;20212;-73
2022/06/23 11:57:38;;;;;;;9.60;5.25;;;42.10;28.30;;;;;;4976737;28;20193;-73
2022/06/23 12:00:06;;;;;;;7.47;4.85;;;42.20;28.10;;;;;;4979509;28;20184;-71
2022/06/23 12:02:57;;;;;;;8.20;4.78;;;42.40;27.50;;;;;;4970862;28;20229;-74
2022/06/23 12:05:31;;;;;;;6.20;4.28;;;42.70;28.50;;;;;;4972950;28;20184;-75
2022/06/23 12:08:08;;;;;;;6.53;4.10;;;43.30;28.20;;;;;;4965879;28;20685;-74
2022/06/23 12:10:36;;;;;;;6.05;3.97;;;43.30;26.90;;;;;;4978260;28;20196;-75
2022/06/23 12:13:04;;;;;;;8.02;4.57;;;43.10;26.60;;;;;;4974502;28;20252;-75
2022/06/23 12:15:39;;;;;;;6.47;4.35;;;43.30;27.00;;;;;;4968315;28;20644;-75
2022/06/23 12:18:19;;;;;;;7.25;4.55;;;43.80;26.00;;;;;;4965027;28;20220;-74
2022/06/23 12:20:51;;;;;;;7.22;4.80;;;44.00;26.70;;;;;;4974425;28;20189;-73
2022/06/23 12:23:21;;;;;;;8.05;4.93;;;44.00;26.10;;;;;;4970951;28;20210;-73
2022/06/23 12:26:09;;;;;;;7.97;4.78;;;43.80;25.80;;;;;;4971893;28;20211;-73
2022/06/23 12:29:03;;;;;;;8.30;4.53;;;44.00;26.40;;;;;;4969807;28;20284;-72
2022/06/23 12:31:34;;;;;;;10.52;3.97;;;43.30;25.00;;;;;;4953468;28;20189;-73
2022/06/23 12:34:34;;;;;;;4.78;3.97;;;42.40;25.90;;;;;;4981427;28;20209;-73
2022/06/23 12:37:24;;;;;;;5.25;3.33;;;42.30;27.00;;;;;;4966180;28;20227;-74
2022/06/23 12:40:00;;;;;;;5.47;3.30;;;42.80;26.00;;;;;;4956635;28;20699;-73
2022/06/23 12:42:42;;;;;;;7.25;3.50;;;43.40;26.60;;;;;;4959278;28;20248;-72
2022/06/23 12:45:36;;;;;;;5.70;3.80;;;43.70;25.70;;;;;;4968595;28;20552;-72
2022/06/23 12:48:14;;;;;;;10.55;5.78;;;44.00;26.40;;;;;;4959474;28;20213;-72
2022/06/23 12:51:07;;;;;;;6.50;4.35;;;44.20;26.00;;;;;;4959665;28;20186;-72
2022/06/23 12:54:05;;;;;;;6.35;4.15;;;44.30;24.70;;;;;;4967063;28;20194;-71
2022/06/23 12:57:02;;;;;;;5.30;3.45;;;44.40;25.70;;;;;;4977645;28;20185;-72
2022/06/23 12:59:40;;;;;;;7.63;4.22;;;44.40;25.90;;;;;;4968797;28;20264;-73
2022/06/23 13:02:21;;;;;;;6.00;4.30;;;44.40;26.00;;;;;;4956861;28;20277;-73
2022/06/23 13:05:02;;;;;;;8.70;4.95;;;44.60;24.80;;;;;;4979807;28;20228;-73
2022/06/23 13:07:41;;;;;;;8.55;4.47;;;44.80;25.40;;;;;;4973386;28;20298;-72
2022/06/23 13:10:52;;;;;;;5.82;3.88;;;44.90;25.80;;;;;;4974365;28;20973;-72
2022/06/23 13:13:22;;;;;;;9.15;5.07;;;44.90;25.40;;;;;;4959032;28;20221;-72
2022/06/23 13:15:59;;;;;;;8.50;4.35;;;44.70;25.50;;;;;;4950839;28;20205;-72
2022/06/23 13:18:44;;;;;;;12.02;5.82;;;44.90;24.40;;;;;;4964418;28;20212;-73
2022/06/23 13:21:22;;;;;;;9.75;4.72;;;44.40;24.70;;;;;;4946217;28;20199;-72
2022/06/23 13:23:57;;;;;;;9.20;4.95;;;43.40;25.30;;;;;;4965602;28;20881;-73
2022/06/23 13:26:42;;;;;;;10.75;5.10;;;41.90;26.20;;;;;;4956421;28;20719;-74
2022/06/23 13:29:21;;;;;;;7.85;5.00;;;41.20;27.00;;;;;;4953608;28;20557;-73
2022/06/23 13:32:00;;;;;;;27.30;12.93;;;41.40;27.50;;;;;;4965269;28;20201;-72
2022/06/23 13:34:30;;;;;;;11.77;5.68;;;41.80;27.20;;;;;;4966835;28;20189;-72
2022/06/23 13:37:21;;;;;;;16.20;9.70;;;42.30;26.90;;;;;;4964942;28;20979;-72
2022/06/23 13:40:09;;;;;;;5.97;3.80;;;42.60;27.20;;;;;;4967677;28;20190;-71
2022/06/23 13:42:45;;;;;;;10.30;5.28;;;43.00;26.50;;;;;;4965803;28;20279;-71
2022/06/23 13:45:26;;;;;;;10.80;4.68;;;43.60;26.60;;;;;;4958524;28;20181;-72
2022/06/23 13:47:56;;;;;;;25.27;11.88;;;43.50;25.70;;;;;;4953591;28;20312;-70
2022/06/23 13:50:56;;;;;;;10.70;5.88;;;42.90;26.70;;;;;;4966935;28;20182;-71
2022/06/23 13:53:52;;;;;;;17.73;7.30;;;43.00;26.90;;;;;;4958049;28;20213;-72
2022/06/23 13:56:55;;;;;;;15.63;7.00;;;43.40;26.90;;;;;;5062144;28;20556;-70
2022/06/23 13:59:50;;;;;;;12.35;6.13;;;43.60;25.90;;;;;;5044985;28;20539;-70
2022/06/23 14:02:51;;;;;;;10.77;5.68;;;43.70;26.40;;;;;;5042753;28;20218;-70
2022/06/23 14:05:39;;;;;;;17.20;7.35;;;42.80;25.10;;;;;;5058472;28;20202;-70